createdAt,value
2023-05-21T00:00:22.254Z,65.93
2023-05-21T00:02:49.469Z,66.24
2023-05-21T00:05:18.416Z,66.14
2023-05-21T00:07:45.980Z,65.52
2023-05-21T00:10:13.259Z,65.53
2023-05-21T00:12:41.811Z,65.41
2023-05-21T00:15:09.257Z,65.48
2023-05-21T00:17:37.007Z,66.38
2023-05-21T00:20:09.115Z,66.10
2023-05-21T00:22:36.391Z,67.38
2023-05-21T00:25:04.119Z,66.94
2023-05-21T00:27:30.798Z,65.88
2023-05-21T00:29:57.831Z,66.81
2023-05-21T00:32:24.590Z,66.38
2023-05-21T00:34:51.409Z,67.09
2023-05-21T00:37:18.109Z,66.83
2023-05-21T00:39:44.657Z,65.98
2023-05-21T00:42:12.423Z,66.44
2023-05-21T00:44:39.357Z,65.89
2023-05-21T00:47:06.692Z,66.66
2023-05-21T00:49:33.320Z,65.96
2023-05-21T00:52:01.682Z,65.89
2023-05-21T00:54:29.518Z,66.10
2023-05-21T00:56:56.587Z,65.15
2023-05-21T00:59:24.145Z,65.29
2023-05-21T01:01:56.114Z,65.22
2023-05-21T01:04:23.617Z,64.85
2023-05-21T01:06:50.290Z,65.61
2023-05-21T01:09:17.199Z,64.30
2023-05-21T01:11:47.806Z,63.63
2023-05-21T01:14:16.178Z,63.18
2023-05-21T01:16:48.604Z,63.24
2023-05-21T01:19:22.692Z,62.69
2023-05-21T01:21:56.809Z,63.24
2023-05-21T01:24:23.528Z,62.09
2023-05-21T01:26:50.130Z,61.96
2023-05-21T01:29:16.834Z,61.94
2023-05-21T01:32:10.494Z,62.31
2023-05-21T01:34:45.832Z,62.62
2023-05-21T01:37:23.548Z,62.96
2023-05-21T01:39:57.300Z,62.21
2023-05-21T01:42:24.864Z,61.87
2023-05-21T01:44:55.761Z,62.39
2023-05-21T01:47:28.125Z,61.31
2023-05-21T01:49:55.479Z,61.84
2023-05-21T01:52:22.620Z,60.59
2023-05-21T01:54:51.069Z,60.09
2023-05-21T01:57:18.607Z,61.05
2023-05-21T01:59:45.683Z,60.96
2023-05-21T02:02:12.360Z,60.54
2023-05-21T02:04:41.395Z,60.88
2023-05-21T02:07:08.151Z,60.22
2023-05-21T02:09:34.812Z,60.43
2023-05-21T02:12:03.381Z,60.70
2023-05-21T02:14:30.059Z,59.86
2023-05-21T02:16:58.053Z,60.76
2023-05-21T02:19:24.738Z,60.66
2023-05-21T02:21:51.407Z,59.57
2023-05-21T02:24:18.123Z,59.27
2023-05-21T02:26:44.808Z,59.75
2023-05-21T02:29:11.507Z,60.38
2023-05-21T02:31:38.155Z,59.32
2023-05-21T02:34:04.826Z,60.71
2023-05-21T02:36:33.417Z,59.20
2023-05-21T02:39:01.775Z,59.59
2023-05-21T02:41:28.470Z,59.44
2023-05-21T02:43:55.104Z,59.83
2023-05-21T02:46:21.747Z,60.94
2023-05-21T02:48:48.354Z,60.23
2023-05-21T02:51:14.992Z,60.29
2023-05-21T02:53:41.588Z,60.36
2023-05-21T02:56:08.245Z,60.54
2023-05-21T02:58:35.033Z,59.96
2023-05-21T03:01:01.766Z,59.78
2023-05-21T03:03:28.590Z,60.37
2023-05-21T03:05:55.333Z,60.85
2023-05-21T03:08:21.932Z,60.16
2023-05-21T03:10:48.981Z,59.82
2023-05-21T03:13:15.714Z,59.97
2023-05-21T03:15:44.015Z,60.48
2023-05-21T03:18:11.832Z,60.43
2023-05-21T03:20:43.774Z,60.63
2023-05-21T03:23:14.243Z,60.78
2023-05-21T03:25:42.957Z,60.05
2023-05-21T03:28:10.183Z,60.07
2023-05-21T03:30:38.312Z,61.43
2023-05-21T03:33:05.180Z,59.78
2023-05-21T03:35:31.920Z,60.92
2023-05-21T03:37:58.526Z,59.67
2023-05-21T03:40:25.189Z,60.45
2023-05-21T03:42:52.062Z,60.59
2023-05-21T03:45:18.663Z,60.64
2023-05-21T03:47:45.331Z,60.43
2023-05-21T03:50:12.469Z,59.62
2023-05-21T03:52:39.101Z,60.62
2023-05-21T03:55:06.784Z,60.57
2023-05-21T03:57:33.514Z,59.86
2023-05-21T04:00:00.299Z,60.54
2023-05-21T04:02:27.557Z,59.40
2023-05-21T04:04:56.030Z,60.82
2023-05-21T04:07:22.940Z,58.97
2023-05-21T04:09:49.688Z,59.59
2023-05-21T04:12:18.139Z,59.60
2023-05-21T04:14:44.816Z,59.86
2023-05-21T04:17:12.757Z,59.81
2023-05-21T04:19:39.727Z,60.58
2023-05-21T04:22:06.513Z,60.51
2023-05-21T04:24:33.161Z,60.43
2023-05-21T04:27:01.611Z,60.30
2023-05-21T04:29:30.037Z,60.95
2023-05-21T04:31:56.777Z,59.00
2023-05-21T04:34:23.429Z,59.39
2023-05-21T04:36:50.056Z,60.54
2023-05-21T04:39:17.180Z,60.07
2023-05-21T04:41:44.358Z,60.67
2023-05-21T04:44:15.143Z,59.70
2023-05-21T04:46:42.830Z,58.36
2023-05-21T04:49:10.290Z,58.84
2023-05-21T04:51:38.070Z,58.53
2023-05-21T04:54:04.953Z,57.90
2023-05-21T04:56:32.061Z,58.60
2023-05-21T04:58:59.066Z,58.03
2023-05-21T05:01:27.388Z,58.72
2023-05-21T05:03:54.162Z,57.73
2023-05-21T05:06:21.512Z,59.01
2023-05-21T05:08:48.216Z,57.57
2023-05-21T05:11:14.809Z,58.05
2023-05-21T05:13:44.521Z,58.99
2023-05-21T05:16:12.901Z,59.06
2023-05-21T05:18:39.608Z,60.34
2023-05-21T05:21:06.308Z,60.75
2023-05-21T05:23:32.909Z,60.62
2023-05-21T05:25:59.512Z,58.46
2023-05-21T05:28:26.164Z,59.16
2023-05-21T05:30:52.818Z,58.80
2023-05-21T05:33:19.559Z,60.24
2023-05-21T05:35:46.287Z,59.68
2023-05-21T05:38:13.625Z,59.09
2023-05-21T05:40:40.517Z,58.13
2023-05-21T05:43:07.177Z,58.68
2023-05-21T05:45:33.865Z,57.95
2023-05-21T05:48:00.675Z,59.04
2023-05-21T05:50:27.646Z,56.33
2023-05-21T05:52:54.261Z,53.91
2023-05-21T05:55:22.043Z,54.19
2023-05-21T05:57:48.724Z,54.35
2023-05-21T06:00:15.810Z,54.47
2023-05-21T06:02:42.534Z,52.60
2023-05-21T06:05:10.299Z,53.48
2023-05-21T06:07:40.386Z,52.37
2023-05-21T06:10:07.957Z,51.12
2023-05-21T06:12:35.188Z,51.08
2023-05-21T06:15:02.068Z,51.01
2023-05-21T06:17:28.842Z,50.24
2023-05-21T06:19:55.632Z,51.07
2023-05-21T06:22:24.935Z,50.54
2023-05-21T06:24:52.290Z,50.97
2023-05-21T06:27:18.963Z,51.26
2023-05-21T06:29:45.786Z,50.03
2023-05-21T06:32:12.446Z,50.99
2023-05-21T06:34:39.068Z,51.16
2023-05-21T06:37:05.858Z,50.98
2023-05-21T06:39:32.452Z,50.78
2023-05-21T06:41:59.140Z,50.40
2023-05-21T06:44:25.743Z,50.19
2023-05-21T06:46:52.393Z,48.79
2023-05-21T06:49:18.974Z,48.53
2023-05-21T06:51:45.617Z,47.57
2023-05-21T06:54:13.103Z,48.33
2023-05-21T06:56:40.659Z,47.64
2023-05-21T06:59:07.361Z,47.74
2023-05-21T07:01:34.871Z,47.63
2023-05-21T07:04:01.534Z,46.71
2023-05-21T07:06:28.154Z,45.74
2023-05-21T07:08:54.861Z,47.51
2023-05-21T07:11:21.709Z,46.38
2023-05-21T07:13:48.468Z,45.32
2023-05-21T07:16:17.069Z,45.39
2023-05-21T07:18:43.787Z,45.75
2023-05-21T07:21:10.617Z,43.85
2023-05-21T07:23:37.304Z,42.12
2023-05-21T07:26:03.990Z,41.81
2023-05-21T07:28:30.801Z,41.83
2023-05-21T07:30:57.443Z,41.60
2023-05-21T07:33:24.116Z,41.06
2023-05-21T07:35:50.736Z,41.29
2023-05-21T07:38:17.716Z,40.53
2023-05-21T07:40:44.515Z,39.25
2023-05-21T07:43:11.159Z,39.73
2023-05-21T07:45:37.977Z,39.57
2023-05-21T07:48:05.005Z,38.87
2023-05-21T07:50:31.907Z,40.03
2023-05-21T07:52:58.592Z,38.61
2023-05-21T07:55:25.224Z,38.18
2023-05-21T07:57:52.478Z,39.17
2023-05-21T08:00:19.323Z,38.57
2023-05-21T08:02:46.261Z,38.15
2023-05-21T08:05:13.239Z,38.73
2023-05-21T08:07:40.169Z,39.06
2023-05-21T08:10:07.610Z,39.77
2023-05-21T08:12:34.402Z,40.83
2023-05-21T08:15:01.055Z,39.88
2023-05-21T08:17:28.829Z,38.86
2023-05-21T08:19:55.558Z,38.66
2023-05-21T08:22:22.297Z,39.83
2023-05-21T08:24:48.939Z,39.95
2023-05-21T08:27:16.287Z,41.21
2023-05-21T08:29:43.344Z,41.60
2023-05-21T08:32:10.181Z,42.98
2023-05-21T08:34:36.854Z,42.08
2023-05-21T08:37:03.610Z,42.42
2023-05-21T08:39:30.216Z,41.89
2023-05-21T08:42:09.484Z,42.38
2023-05-21T08:44:42.192Z,41.93
2023-05-21T08:47:11.687Z,42.50
2023-05-21T08:49:38.332Z,40.82
2023-05-21T08:52:06.252Z,40.03
2023-05-21T08:54:33.352Z,39.54
2023-05-21T08:57:02.402Z,41.38
2023-05-21T08:59:29.131Z,45.38
2023-05-21T09:01:57.811Z,46.97
2023-05-21T09:04:25.384Z,50.12
2023-05-21T09:06:52.187Z,50.23
2023-05-21T09:09:43.433Z,47.63
2023-05-21T09:12:10.356Z,48.92
2023-05-21T09:14:37.589Z,50.58
2023-05-21T09:17:04.417Z,49.28
2023-05-21T09:19:32.315Z,48.88
2023-05-21T09:22:03.774Z,50.54
2023-05-21T09:24:36.034Z,50.72
2023-05-21T09:27:06.479Z,52.09
2023-05-21T09:29:34.459Z,49.30
2023-05-21T09:32:07.061Z,48.74
2023-05-21T09:34:36.292Z,52.16
2023-05-21T09:37:03.737Z,53.05
2023-05-21T09:39:33.538Z,51.59
2023-05-21T09:42:00.221Z,51.08
2023-05-21T09:44:27.110Z,53.04
2023-05-21T09:46:58.994Z,51.46
2023-05-21T09:49:29.205Z,53.62
2023-05-21T09:51:59.131Z,54.42
2023-05-21T09:54:31.513Z,53.03
2023-05-21T09:57:00.024Z,49.78
2023-05-21T09:59:36.378Z,46.31
2023-05-21T10:02:03.481Z,46.53
2023-05-21T10:04:31.763Z,48.14
2023-05-21T10:07:00.002Z,49.83
2023-05-21T10:09:28.519Z,50.34
2023-05-21T10:11:55.202Z,49.38
2023-05-21T10:14:25.555Z,42.36
2023-05-21T10:16:54.278Z,43.21
2023-05-21T10:19:22.724Z,43.56
2023-05-21T10:21:52.587Z,44.44
2023-05-21T10:24:20.059Z,42.02
2023-05-21T10:26:47.672Z,42.44
2023-05-21T10:29:17.368Z,41.09
2023-05-21T10:31:49.747Z,40.35
2023-05-21T10:34:16.761Z,41.12
2023-05-21T10:36:44.463Z,40.57
2023-05-21T10:39:13.071Z,40.08
2023-05-21T10:41:51.274Z,39.46
2023-05-21T10:44:33.745Z,38.28
2023-05-21T10:47:29.303Z,37.12
2023-05-21T10:50:14.144Z,37.41
2023-05-21T10:53:10.639Z,37.61
2023-05-21T10:56:03.364Z,37.59
2023-05-21T10:58:51.755Z,38.53
2023-05-21T11:01:19.611Z,39.40
2023-05-21T11:03:48.738Z,39.33
2023-05-21T11:06:26.655Z,39.86
2023-05-21T11:08:56.359Z,39.95
2023-05-21T11:11:46.409Z,40.22
2023-05-21T11:14:39.628Z,41.86
2023-05-21T11:17:06.759Z,41.94
2023-05-21T11:19:47.583Z,42.50
2023-05-21T11:22:20.265Z,42.66
2023-05-21T11:24:48.833Z,43.25
2023-05-21T11:27:36.848Z,43.50
2023-05-21T11:30:08.752Z,44.68
2023-05-21T11:32:57.577Z,43.98
2023-05-21T11:35:24.291Z,44.99
2023-05-21T11:37:54.214Z,45.68
2023-05-21T11:40:28.332Z,45.62
2023-05-21T11:42:56.431Z,46.77
2023-05-21T11:45:28.436Z,45.15
2023-05-21T11:47:56.345Z,46.72
2023-05-21T11:50:23.143Z,46.62
2023-05-21T11:52:50.625Z,46.36
2023-05-21T11:55:21.749Z,47.12
2023-05-21T11:57:48.788Z,48.28
2023-05-21T12:00:16.580Z,49.13
2023-05-21T12:02:53.096Z,48.84
2023-05-21T12:05:20.714Z,49.20
2023-05-21T12:07:50.077Z,48.62
2023-05-21T12:10:17.325Z,49.12
2023-05-21T12:12:54.852Z,48.68
2023-05-21T12:15:24.492Z,51.17
2023-05-21T12:17:53.089Z,50.67
2023-05-21T12:20:20.124Z,51.14
2023-05-21T12:22:48.803Z,50.59
2023-05-21T12:25:19.426Z,50.96
2023-05-21T12:27:46.709Z,50.61
2023-05-21T12:30:13.886Z,51.81
2023-05-21T12:32:47.219Z,53.52
2023-05-21T12:35:23.783Z,54.41
2023-05-21T12:37:51.194Z,56.09
2023-05-21T12:40:18.297Z,58.75
2023-05-21T12:42:45.027Z,59.34
2023-05-21T12:45:12.124Z,61.29
2023-05-21T12:47:39.071Z,59.27
2023-05-21T12:50:11.766Z,60.66
2023-05-21T12:52:40.488Z,59.81
2023-05-21T12:55:09.597Z,59.12
2023-05-21T12:57:40.991Z,58.32
2023-05-21T13:00:08.936Z,55.37
2023-05-21T13:02:41.033Z,55.50
2023-05-21T13:05:09.832Z,55.42
2023-05-21T13:07:39.371Z,57.87
2023-05-21T13:10:07.248Z,57.56
2023-05-21T13:12:34.707Z,57.16
2023-05-21T13:15:03.282Z,59.24
2023-05-21T13:17:30.502Z,59.06
2023-05-21T13:20:08.771Z,59.44
2023-05-21T13:22:43.798Z,60.65
2023-05-21T13:25:11.825Z,59.33
2023-05-21T13:27:39.483Z,58.26
2023-05-21T13:30:07.118Z,59.82
2023-05-21T13:32:34.034Z,59.60
2023-05-21T13:35:00.998Z,58.54
2023-05-21T13:37:27.901Z,58.52
2023-05-21T13:39:55.003Z,55.76
2023-05-21T13:42:21.815Z,57.99
2023-05-21T13:44:48.488Z,56.16
2023-05-21T13:47:15.728Z,56.46
2023-05-21T13:49:42.659Z,55.01
2023-05-21T13:52:09.555Z,55.02
2023-05-21T13:54:36.830Z,55.12
2023-05-21T13:57:03.774Z,55.68
2023-05-21T13:59:33.252Z,55.07
2023-05-21T14:02:00.612Z,54.26
2023-05-21T14:04:27.364Z,53.26
2023-05-21T14:06:54.124Z,54.82
2023-05-21T14:09:21.457Z,54.44
2023-05-21T14:11:48.060Z,53.14
2023-05-21T14:14:18.980Z,53.11
2023-05-21T14:16:47.293Z,52.73
2023-05-21T14:19:14.677Z,52.33
2023-05-21T14:21:42.157Z,52.72
2023-05-21T14:24:08.773Z,52.84
2023-05-21T14:26:37.388Z,53.75
2023-05-21T14:29:04.027Z,54.97
2023-05-21T14:31:31.847Z,55.03
2023-05-21T14:33:58.584Z,54.71
2023-05-21T14:36:25.202Z,54.10
2023-05-21T14:38:51.855Z,55.35
2023-05-21T14:41:18.466Z,53.84
2023-05-21T14:43:45.067Z,52.84
2023-05-21T14:46:11.690Z,53.30
2023-05-21T14:48:38.368Z,54.10
2023-05-21T14:51:04.980Z,54.23
2023-05-21T14:53:32.363Z,55.31
2023-05-21T14:55:59.109Z,56.75
2023-05-21T14:58:25.766Z,56.48
2023-05-21T15:00:52.441Z,56.56
2023-05-21T15:03:19.212Z,56.80
2023-05-21T15:05:45.926Z,57.94
2023-05-21T15:08:12.535Z,58.73
2023-05-21T15:10:39.249Z,58.88
2023-05-21T15:13:05.896Z,59.09
2023-05-21T15:15:32.541Z,59.83
2023-05-21T15:17:59.380Z,60.64
2023-05-21T15:20:25.995Z,60.27
2023-05-21T15:22:59.093Z,58.97
2023-05-21T15:25:35.717Z,59.83
2023-05-21T15:28:02.568Z,59.56
2023-05-21T15:30:29.228Z,59.42
2023-05-21T15:32:55.949Z,59.32
2023-05-21T15:35:22.670Z,59.55
2023-05-21T15:37:49.407Z,59.46
2023-05-21T15:40:16.122Z,59.24
2023-05-21T15:42:42.730Z,58.28
2023-05-21T15:45:09.715Z,59.40
2023-05-21T15:47:36.610Z,60.24
2023-05-21T15:50:03.334Z,60.77
2023-05-21T15:52:29.963Z,60.88
2023-05-21T15:54:56.585Z,61.04
2023-05-21T15:57:23.293Z,60.78
2023-05-21T15:59:50.763Z,60.38
2023-05-21T16:02:17.468Z,60.13
2023-05-21T16:04:44.120Z,59.57
2023-05-21T16:07:10.828Z,58.98
2023-05-21T16:09:38.544Z,59.09
2023-05-21T16:12:05.613Z,58.88
2023-05-21T16:14:32.215Z,57.97
2023-05-21T16:16:58.940Z,58.17
2023-05-21T16:19:25.777Z,58.14
2023-05-21T16:21:52.539Z,55.76
2023-05-21T16:24:19.193Z,55.04
2023-05-21T16:26:46.334Z,54.68
2023-05-21T16:29:13.210Z,54.22
2023-05-21T16:31:39.865Z,52.92
2023-05-21T16:34:06.939Z,52.38
2023-05-21T16:36:33.853Z,51.63
2023-05-21T16:39:00.502Z,51.46
2023-05-21T16:41:27.265Z,52.45
2023-05-21T16:43:54.400Z,54.46
2023-05-21T16:46:21.614Z,55.01
2023-05-21T16:48:48.363Z,55.65
2023-05-21T16:51:15.102Z,57.16
2023-05-21T16:53:41.691Z,58.50
2023-05-21T16:56:08.340Z,59.68
2023-05-21T16:58:36.190Z,60.37
2023-05-21T17:01:03.922Z,62.62
2023-05-21T17:03:32.565Z,60.10
2023-05-21T17:05:59.314Z,60.50
2023-05-21T17:08:26.115Z,59.21
2023-05-21T17:10:52.796Z,58.01
2023-05-21T17:13:22.589Z,58.25
2023-05-21T17:15:51.175Z,58.71
2023-05-21T17:18:17.962Z,59.00
2023-05-21T17:20:44.889Z,59.22
2023-05-21T17:23:12.232Z,58.69
2023-05-21T17:25:39.745Z,58.97
2023-05-21T17:28:06.735Z,59.67
2023-05-21T17:30:33.521Z,59.56
2023-05-21T17:33:02.326Z,59.08
2023-05-21T17:35:29.480Z,59.45
2023-05-21T17:37:56.309Z,60.07
2023-05-21T17:40:24.754Z,60.61
2023-05-21T17:42:52.473Z,60.21
2023-05-21T17:45:19.511Z,60.63
2023-05-21T17:47:46.386Z,61.75
2023-05-21T17:50:13.325Z,60.99
2023-05-21T17:52:40.073Z,61.94
2023-05-21T17:55:07.930Z,61.86
2023-05-21T17:57:35.998Z,61.97
2023-05-21T18:00:05.118Z,61.99
2023-05-21T18:02:31.884Z,62.23
2023-05-21T18:04:58.670Z,62.26
2023-05-21T18:07:25.738Z,62.90
2023-05-21T18:09:52.407Z,63.40
2023-05-21T18:12:19.082Z,64.40
2023-05-21T18:14:45.955Z,64.69
2023-05-21T18:17:12.886Z,63.87
2023-05-21T18:19:39.542Z,64.79
2023-05-21T18:22:06.546Z,64.90
2023-05-21T18:24:33.294Z,63.91
2023-05-21T18:26:59.910Z,64.33
2023-05-21T18:29:26.584Z,63.23
2023-05-21T18:31:53.545Z,63.23
2023-05-21T18:34:20.292Z,63.15
2023-05-21T18:36:48.198Z,63.53
2023-05-21T18:39:14.967Z,63.40
2023-05-21T18:41:41.748Z,64.74
2023-05-21T18:44:08.905Z,65.32
2023-05-21T18:46:36.165Z,65.91
2023-05-21T18:49:02.913Z,65.83
2023-05-21T18:51:29.610Z,66.17
2023-05-21T18:53:56.269Z,66.35
2023-05-21T18:56:22.977Z,66.60
2023-05-21T18:58:49.846Z,66.53
2023-05-21T19:01:17.900Z,66.80
2023-05-21T19:03:44.629Z,67.24
2023-05-21T19:06:11.289Z,67.09
2023-05-21T19:08:37.991Z,66.45
2023-05-21T19:11:05.002Z,66.14
2023-05-21T19:13:31.608Z,66.16
2023-05-21T19:15:58.758Z,66.21
2023-05-21T19:18:31.631Z,66.71
2023-05-21T19:21:00.273Z,67.31
2023-05-21T19:23:27.113Z,67.69
2023-05-21T19:25:53.816Z,67.81
2023-05-21T19:28:20.482Z,68.74
2023-05-21T19:30:47.152Z,67.86
2023-05-21T19:33:13.880Z,67.33
2023-05-21T19:35:42.004Z,66.58
2023-05-21T19:38:12.158Z,68.03
2023-05-21T19:40:38.920Z,68.68
2023-05-21T19:43:05.870Z,68.71
2023-05-21T19:45:32.666Z,69.80
2023-05-21T19:47:59.889Z,67.71
2023-05-21T19:50:28.846Z,67.11
2023-05-21T19:52:57.301Z,65.34
2023-05-21T19:55:24.733Z,65.12
2023-05-21T19:57:51.704Z,65.31
2023-05-21T20:00:19.034Z,65.70
2023-05-21T20:02:46.263Z,66.57
2023-05-21T20:05:13.295Z,67.09
2023-05-21T20:07:40.124Z,67.08
2023-05-21T20:10:07.598Z,67.91
2023-05-21T20:12:34.308Z,67.97
2023-05-21T20:15:01.236Z,67.75
2023-05-21T20:17:28.804Z,68.54
2023-05-21T20:19:57.329Z,69.22
2023-05-21T20:22:24.032Z,69.47
2023-05-21T20:24:50.765Z,70.51
2023-05-21T20:27:19.538Z,71.16
2023-05-21T20:29:46.817Z,71.35
2023-05-21T20:32:13.701Z,69.71
2023-05-21T20:34:54.378Z,69.16
2023-05-21T20:37:28.330Z,69.82
2023-05-21T20:39:57.818Z,70.08
2023-05-21T20:42:28.526Z,70.39
2023-05-21T20:44:58.840Z,70.35
2023-05-21T20:47:25.516Z,71.11
2023-05-21T20:49:53.698Z,70.32
2023-05-21T20:52:21.022Z,70.29
2023-05-21T20:54:48.936Z,70.21
2023-05-21T20:57:16.135Z,70.11
2023-05-21T20:59:43.140Z,70.22
2023-05-21T21:02:12.710Z,70.07
2023-05-21T21:04:39.873Z,69.96
2023-05-21T21:07:08.120Z,69.88
2023-05-21T21:09:34.763Z,70.05
2023-05-21T21:12:11.400Z,69.56
2023-05-21T21:14:48.154Z,70.05
2023-05-21T21:17:14.934Z,69.53
2023-05-21T21:19:41.587Z,68.34
2023-05-21T21:22:08.236Z,69.39
2023-05-21T21:24:34.950Z,69.06
2023-05-21T21:27:01.739Z,68.89
2023-05-21T21:29:28.405Z,69.24
2023-05-21T21:31:55.090Z,69.70
2023-05-21T21:34:23.568Z,70.23
2023-05-21T21:36:50.769Z,70.84
2023-05-21T21:39:20.835Z,70.79
2023-05-21T21:41:47.502Z,71.85
2023-05-21T21:44:14.176Z,71.23
2023-05-21T21:46:40.908Z,71.66
2023-05-21T21:49:07.646Z,72.32
2023-05-21T21:51:34.947Z,72.94
2023-05-21T21:54:01.598Z,72.33
2023-05-21T21:56:30.089Z,73.22
2023-05-21T21:58:56.808Z,73.52
2023-05-21T22:01:23.593Z,74.11
2023-05-21T22:03:50.337Z,74.25
2023-05-21T22:06:17.056Z,74.39
2023-05-21T22:08:43.703Z,74.93
2023-05-21T22:11:10.859Z,75.59
2023-05-21T22:13:37.774Z,75.80
2023-05-21T22:16:05.515Z,76.33
2023-05-21T22:18:40.463Z,76.20
2023-05-21T22:21:09.958Z,76.78
2023-05-21T22:23:56.904Z,76.23
2023-05-21T22:26:23.553Z,75.26
2023-05-21T22:28:51.107Z,76.76
2023-05-21T22:31:17.829Z,77.75
2023-05-21T22:33:44.495Z,78.34
2023-05-21T22:36:11.173Z,78.72
2023-05-21T22:38:37.946Z,79.00
2023-05-21T22:41:04.654Z,79.36
2023-05-21T22:43:34.759Z,79.67
2023-05-21T22:46:01.974Z,80.17
2023-05-21T22:48:30.836Z,79.85
2023-05-21T22:50:58.476Z,80.02
2023-05-21T22:53:25.779Z,80.01
2023-05-21T22:55:52.466Z,80.25
2023-05-21T22:58:19.232Z,80.88
2023-05-21T23:00:46.951Z,81.17
2023-05-21T23:03:13.656Z,81.50
2023-05-21T23:05:40.742Z,81.43
2023-05-21T23:08:07.584Z,81.57
2023-05-21T23:10:35.581Z,81.59
2023-05-21T23:13:02.289Z,82.21
2023-05-21T23:15:29.640Z,82.19
2023-05-21T23:17:57.256Z,82.94
2023-05-21T23:20:24.661Z,82.62
2023-05-21T23:22:51.821Z,81.97
2023-05-21T23:25:18.494Z,81.49
2023-05-21T23:27:45.381Z,82.06
2023-05-21T23:30:12.134Z,82.48
2023-05-21T23:32:38.947Z,81.48
2023-05-21T23:35:06.091Z,80.94
2023-05-21T23:37:32.695Z,80.35
2023-05-21T23:39:59.270Z,79.82
2023-05-21T23:42:25.876Z,78.72
2023-05-21T23:44:52.471Z,78.53
2023-05-21T23:47:19.158Z,75.88
2023-05-21T23:49:45.728Z,73.09
2023-05-21T23:52:13.607Z,72.54
2023-05-21T23:54:40.187Z,72.18
2023-05-21T23:57:06.819Z,71.03
2023-05-21T23:59:33.437Z,71.85
